Time;durP1;ratioP1;P1;durP2;ratioP2;P2;SDS_P1;SDS_P2;PMS_P1;PMS_P2;Temp;Humidity;BMP_temperature;BMP_pressure;BME280_temperature;BME280_humidity;BME280_pressure;Samples;Min_cycle;Max_cycle;Signal;HPM_P1;HPM_P2
2022/02/03 00:05:15;;;;;;;7.20;2.67;;;;;;;-0.48;88.35;101012.34;1628159;86;20957;-79
2022/02/03 00:08:16;;;;;;;5.37;2.62;;;;;;;-0.49;88.33;101011.89;1616827;86;21060;-79
2022/02/03 00:11:16;;;;;;;6.75;3.40;;;;;;;-0.50;88.35;101016.11;1637822;87;20961;-80
2022/02/03 00:17:01;;;;;;;4.05;2.62;;;;;;;-0.51;88.36;101035.10;1641960;86;20925;-78
2022/02/03 00:25:43;;;;;;;3.55;2.52;;;;;;;-0.55;88.34;101048.13;1643120;86;21080;-79
2022/02/03 00:28:31;;;;;;;2.95;2.30;;;;;;;-0.55;88.35;101043.05;1636242;86;21536;-78
2022/02/03 00:31:36;;;;;;;6.75;2.35;;;;;;;-0.50;88.43;101050.80;1613268;86;21526;-78
2022/02/03 00:34:18;;;;;;;5.45;2.15;;;;;;;-0.45;88.51;101053.09;1633528;86;21052;-78
2022/02/03 00:49:00;;;;;;;3.27;1.70;;;;;;;-0.18;88.61;101082.02;1630080;86;21060;-79
2022/02/03 00:51:48;;;;;;;3.42;2.22;;;;;;;-0.12;88.61;101083.50;1636138;86;21060;-79
2022/02/03 00:54:32;;;;;;;3.45;1.82;;;;;;;-0.09;88.55;101086.15;1635554;86;21028;-78
2022/02/03 00:57:31;;;;;;;4.07;1.97;;;;;;;-0.05;88.60;101082.91;1637026;86;21154;-78
2022/02/03 01:00:18;;;;;;;3.75;2.00;;;;;;;0.00;88.56;101091.52;1636652;86;21079;-78
2022/02/03 01:03:14;;;;;;;3.02;1.70;;;;;;;0.03;88.53;101092.03;1636457;86;21127;-78
2022/02/03 01:06:01;;;;;;;1.90;1.62;;;;;;;0.05;88.46;101095.48;1636151;86;21523;-78
2022/02/03 01:08:49;;;;;;;6.35;2.02;;;;;;;0.09;88.54;101100.27;1635712;86;21172;-78
2022/02/03 01:11:40;;;;;;;2.95;1.92;;;;;;;0.13;88.53;101100.42;1636003;86;21512;-77
2022/02/03 01:14:37;;;;;;;3.50;1.90;;;;;;;0.17;88.54;101106.48;1637041;85;21082;-77
2022/02/03 01:20:46;;;;;;;3.45;2.05;;;;;;;0.19;88.51;101108.27;1635464;86;21608;-79
2022/02/03 01:44:16;;;;;;;2.77;1.82;;;;;;;0.33;88.54;101117.63;1609994;87;20971;-78
2022/02/03 01:47:01;;;;;;;2.70;1.52;;;;;;;0.34;88.55;101115.55;1615200;87;20927;-78
2022/02/03 01:52:36;;;;;;;5.08;2.00;;;;;;;0.33;88.50;101112.55;1610633;87;21028;-78
2022/02/03 01:55:27;;;;;;;3.17;2.02;;;;;;;0.33;88.51;101117.22;1590822;88;20977;-77
2022/02/03 01:58:20;;;;;;;6.05;2.15;;;;;;;0.32;88.47;101115.90;1616389;87;20997;-77
2022/02/03 02:01:05;;;;;;;5.05;1.98;;;;;;;0.30;88.45;101116.25;1592371;87;20992;-78
2022/02/03 02:04:22;;;;;;;3.77;2.08;;;;;;;0.27;88.43;101117.42;1603974;87;21563;-77
2022/02/03 02:07:45;;;;;;;3.25;2.02;;;;;;;0.23;88.41;101116.45;1587598;88;20952;-78
2022/02/03 02:14:02;;;;;;;3.52;2.05;;;;;;;0.15;88.42;101120.41;1616118;87;20976;-77
2022/02/03 02:16:59;;;;;;;2.77;2.30;;;;;;;0.11;88.39;101113.50;1605423;87;21433;-77
2022/02/03 02:44:15;;;;;;;4.45;2.52;;;;;;;-0.28;88.43;101121.02;1640413;85;21147;-77
2022/02/03 02:47:04;;;;;;;5.12;2.70;;;;;;;-0.29;88.46;101115.08;1649643;85;21136;-77
2022/02/03 02:50:19;;;;;;;7.75;2.65;;;;;;;-0.30;88.47;101109.53;1632761;86;21048;-77
2022/02/03 02:53:31;;;;;;;7.17;3.87;;;;;;;-0.29;88.47;101100.23;1613079;86;21429;-77
2022/02/03 02:59:39;;;;;;;5.08;2.83;;;;;;;-0.28;88.56;101104.51;1584686;87;21021;-77
2022/02/03 03:38:35;;;;;;;5.92;2.92;;;;;;;-0.02;88.59;101115.19;1650691;85;21512;-77
2022/02/03 03:41:21;;;;;;;6.75;3.37;;;;;;;-0.01;88.60;101108.89;1656848;85;20941;-77
2022/02/03 03:44:11;;;;;;;6.58;2.83;;;;;;;0.01;88.58;101111.45;1628398;85;21450;-77
2022/02/03 03:47:01;;;;;;;7.83;2.95;;;;;;;0.03;88.58;101118.72;1644050;85;20949;-77
2022/02/03 03:49:48;;;;;;;7.00;3.42;;;;;;;0.04;88.58;101122.13;1637834;85;21343;-77
2022/02/03 03:52:43;;;;;;;5.83;3.33;;;;;;;0.04;88.58;101123.00;1637516;85;20913;-77
2022/02/03 03:55:40;;;;;;;7.10;3.62;;;;;;;0.05;88.58;101123.86;1637699;85;20968;-77
2022/02/03 04:31:13;;;;;;;6.10;2.75;;;;;;;0.14;88.66;101130.12;1610868;87;21134;-78
2022/02/03 04:42:46;;;;;;;5.12;2.33;;;;;;;0.19;88.66;101137.91;1637744;86;20976;-77
2022/02/03 05:12:31;;;;;;;12.50;2.80;;;;;;;0.29;88.71;101127.24;1611287;87;21721;-76
2022/02/03 05:15:40;;;;;;;6.62;2.47;;;;;;;0.30;88.69;101128.97;1620620;85;21585;-76
2022/02/03 05:45:16;;;;;;;11.73;2.95;;;;;;;0.46;88.79;101136.71;1658913;85;20949;-78
2022/02/03 06:05:29;;;;;;;13.18;4.55;;;;;;;0.57;88.75;101158.25;1590981;85;21025;-77
2022/02/03 06:14:10;;;;;;;11.55;3.77;;;;;;;0.60;88.78;101145.23;1655810;85;20905;-77
2022/02/03 06:22:56;;;;;;;6.72;3.33;;;;;;;0.60;88.78;101136.73;1633607;85;20914;-78
2022/02/03 06:28:47;;;;;;;6.70;2.77;;;;;;;0.63;88.83;101132.60;1627460;85;21235;-77
2022/02/03 06:31:28;;;;;;;;;;;;;;;0.61;88.75;101126.59;1595707;88;20924;-77
2022/02/03 06:34:13;;;;;;;9.77;2.97;;;;;;;0.62;88.78;101133.42;1608322;87;20134;-77
2022/02/03 06:36:57;;;;;;;8.13;3.22;;;;;;;0.61;88.78;101129.14;1647725;84;20957;-76
2022/02/03 06:39:41;;;;;;;9.35;3.00;;;;;;;0.62;88.83;101129.59;1641526;84;20966;-76
2022/02/03 06:42:26;;;;;;;10.32;3.72;;;;;;;0.64;88.84;101142.37;1648636;85;21352;-76
2022/02/03 06:45:18;;;;;;;12.98;3.95;;;;;;;0.66;88.84;101143.29;1644790;85;20958;-76
2022/02/03 06:48:12;;;;;;;13.35;3.80;;;;;;;0.69;88.86;101141.25;1649036;85;21303;-76
2022/02/03 06:50:56;;;;;;;16.97;4.70;;;;;;;0.69;88.84;101137.44;1644961;85;21306;-76
2022/02/03 06:53:39;;;;;;;16.45;5.72;;;;;;;0.69;88.84;101131.94;1647095;85;20967;-76
2022/02/03 06:56:36;;;;;;;;;;;;;;;0.71;88.85;101124.35;1646582;85;20917;-74
2022/02/03 06:59:16;;;;;;;12.73;5.17;;;;;;;0.71;88.84;101116.72;1642403;85;20134;-76
2022/02/03 07:02:00;;;;;;;;;;;;;;;0.71;88.80;101116.72;1646644;85;20968;-76
2022/02/03 07:04:45;;;;;;;20.57;5.83;;;;;;;0.70;88.83;101122.22;1646712;85;20126;-75
2022/02/03 07:07:29;;;;;;;13.20;5.05;;;;;;;0.73;88.85;101113.41;1637287;85;20933;-76
2022/02/03 07:10:14;;;;;;;11.45;4.80;;;;;;;0.73;88.86;101113.41;1637648;85;21021;-77
2022/02/03 07:12:59;;;;;;;17.35;5.67;;;;;;;0.76;88.89;101098.64;1646185;85;20961;-77
2022/02/03 07:15:44;;;;;;;15.58;6.55;;;;;;;0.77;88.90;101082.55;1645625;85;20898;-76
2022/02/03 07:18:28;;;;;;;18.98;7.37;;;;;;;0.77;88.87;101083.82;1647272;85;20969;-77
2022/02/03 07:21:14;;;;;;;20.10;8.00;;;;;;;0.79;88.89;101085.59;1647429;85;21582;-77
2022/02/03 07:23:58;;;;;;;20.65;9.38;;;;;;;0.79;88.84;101083.05;1647491;85;20962;-77
2022/02/03 07:26:42;;;;;;;22.45;8.68;;;;;;;0.79;88.87;101084.33;1647286;84;21131;-76
2022/02/03 07:29:27;;;;;;;22.67;9.80;;;;;;;0.82;88.86;101075.92;1636964;85;21281;-76
2022/02/03 07:32:11;;;;;;;22.25;8.70;;;;;;;0.84;88.91;101066.23;1636365;85;21373;-76
2022/02/03 07:34:57;;;;;;;22.75;9.30;;;;;;;0.86;88.87;101072.66;1651491;85;21061;-76
2022/02/03 07:37:47;;;;;;;18.85;8.10;;;;;;;0.86;88.87;101071.37;1645853;85;21512;-76
2022/02/03 07:40:33;;;;;;;25.32;9.15;;;;;;;0.89;88.90;101069.80;1634466;84;21267;-77
2022/02/03 07:43:17;;;;;;;24.65;8.58;;;;;;;0.91;88.90;101066.88;1639940;85;20957;-75
2022/02/03 07:46:02;;;;;;;19.48;7.62;;;;;;;0.94;88.91;101070.80;1646084;85;21044;-78
2022/02/03 07:48:49;;;;;;;13.80;6.83;;;;;;;0.97;88.92;101069.61;1632518;85;21535;-77
2022/02/03 07:51:34;;;;;;;18.75;6.72;;;;;;;0.99;88.90;101067.98;1641063;85;21061;-77
2022/02/03 07:54:18;;;;;;;17.90;6.95;;;;;;;1.01;88.88;101065.89;1645764;85;21125;-78
2022/02/03 07:57:03;;;;;;;20.70;6.50;;;;;;;0.99;88.86;101070.52;1642091;85;21104;-78
2022/02/03 07:59:48;;;;;;;16.50;6.37;;;;;;;1.02;88.90;101070.16;1646230;85;21117;-77
2022/02/03 08:02:35;;;;;;;19.02;7.00;;;;;;;1.03;88.89;101067.66;1630167;85;21350;-77
2022/02/03 08:05:21;;;;;;;17.23;6.58;;;;;;;1.04;88.90;101066.81;1646179;85;21024;-78
2022/02/03 08:08:16;;;;;;;18.48;7.28;;;;;;;1.03;88.89;101070.20;1650176;85;21016;-78
2022/02/03 08:10:58;;;;;;;17.57;6.92;;;;;;;1.03;88.84;101059.16;1611799;86;20965;-77
2022/02/03 08:16:35;;;;;;;16.75;7.28;;;;;;;1.00;88.86;101056.11;1502391;93;21038;-77
2022/02/03 08:19:22;;;;;;;15.63;7.53;;;;;;;0.99;88.90;101048.02;1535410;91;21530;-77
2022/02/03 08:22:08;;;;;;;28.50;10.00;;;;;;;1.02;88.93;101051.06;1542177;88;21499;-76
2022/02/03 08:24:53;;;;;;;19.80;7.67;;;;;;;1.04;88.98;101059.17;1539469;90;47120;-78
2022/02/03 08:30:46;;;;;;;26.57;8.13;;;;;;;1.09;88.96;101052.94;1527652;90;21032;-79
2022/02/03 08:33:25;;;;;;;20.43;8.18;;;;;;;1.10;88.93;101052.98;1529323;91;21153;-79
2022/02/03 08:36:12;;;;;;;26.30;8.98;;;;;;;1.14;89.00;101060.31;1555392;90;21171;-78
2022/02/03 08:38:58;;;;;;;19.02;8.35;;;;;;;1.18;88.97;101052.80;1545353;91;21634;-77
2022/02/03 08:41:43;;;;;;;19.60;7.87;;;;;;;1.19;88.99;101049.44;1518557;92;21116;-78
2022/02/03 08:44:27;;;;;;;25.55;8.00;;;;;;;1.24;89.00;101054.66;1573419;90;21085;-78
2022/02/03 08:47:12;;;;;;;25.00;6.78;;;;;;;1.28;88.99;101051.38;1568649;87;21507;-78
2022/02/03 08:49:57;;;;;;;23.12;6.78;;;;;;;1.30;88.98;101053.16;1570673;90;21200;-77
2022/02/03 08:52:58;;;;;;;18.73;6.75;;;;;;;1.33;88.98;101059.61;1573467;87;21589;-77
2022/02/03 09:38:00;;;;;;;14.23;5.03;;;;;;;1.67;88.99;101029.94;1567377;88;22393;-77
2022/02/03 09:52:49;;;;;;;12.83;4.40;;;;;;;1.88;89.06;101033.46;1489551;86;5001324;-78
2022/02/03 09:58:14;;;;;;;14.47;5.30;;;;;;;2.03;89.14;101028.75;1611601;87;21760;-77
2022/02/03 10:01:07;;;;;;;15.88;6.12;;;;;;;2.10;89.09;101019.53;1612723;87;20978;-77
2022/02/03 10:06:35;;;;;;;18.07;5.65;;;;;;;2.26;89.14;101016.53;1609104;87;20499;-77
2022/02/03 10:09:39;;;;;;;15.58;5.83;;;;;;;2.32;89.13;101014.99;1544849;90;20958;-78
2022/02/03 10:12:37;;;;;;;17.17;5.45;;;;;;;2.42;89.19;101018.62;1570184;89;20961;-76
2022/02/03 10:15:22;;;;;;;19.55;5.58;;;;;;;2.53;89.26;101008.25;1571143;89;20922;-76
2022/02/03 10:18:25;;;;;;;16.27;5.53;;;;;;;2.62;89.20;100999.49;1555078;89;21448;-77
2022/02/03 10:21:16;;;;;;;17.82;6.03;;;;;;;2.70;89.15;100998.80;1552791;89;20951;-79
2022/02/03 10:24:04;;;;;;;19.23;6.30;;;;;;;2.77;89.13;100994.28;1557215;89;21500;-79
2022/02/03 10:26:52;;;;;;;19.20;5.67;;;;;;;2.80;89.10;100987.55;1575277;87;21422;-78
2022/02/03 10:29:43;;;;;;;20.35;5.72;;;;;;;2.87;89.16;100981.74;1613566;87;20994;-76
2022/02/03 10:32:26;;;;;;;16.87;5.10;;;;;;;2.94;89.20;100981.45;1610869;87;21389;-75
2022/02/03 10:35:24;;;;;;;14.63;4.47;;;;;;;3.02;89.24;100975.23;1578168;88;20941;-77
2022/02/03 10:44:38;;;;;;;18.85;5.50;;;;;;;3.19;89.14;100965.77;1615156;86;20930;-76
2022/02/03 10:59:08;;;;;;;21.12;5.30;;;;;;;3.50;89.16;100956.12;1613484;87;21006;-76
2022/02/03 11:01:46;;;;;;;16.52;4.45;;;;;;;3.53;89.11;100947.23;1556918;90;20959;-75
2022/02/03 11:07:27;;;;;;;18.40;5.87;;;;;;;3.61;89.14;100941.41;1665927;83;20919;-77
2022/02/03 11:10:24;;;;;;;14.45;5.17;;;;;;;3.67;89.18;100944.47;1678472;83;21472;-76
2022/02/03 11:12:54;;;;;;;28.32;5.92;;;;;;;3.74;89.18;100942.88;1649731;85;21521;-76
2022/02/03 11:15:39;;;;;;;17.48;5.03;;;;;;;3.82;89.26;100938.75;1637087;84;20922;-77
2022/02/03 11:18:25;;;;;;;16.73;4.70;;;;;;;3.90;89.24;100934.63;1653385;85;21457;-77
2022/02/03 11:21:09;;;;;;;;;;;;;;;3.98;89.28;100936.89;1643902;85;20913;-78
2022/02/03 11:24:06;;;;;;;20.35;5.75;;;;;;;4.04;89.13;100929.73;1634032;85;20107;-78
2022/02/03 11:31:02;;;;;;;16.40;5.17;;;;;;;4.18;89.19;100925.23;1508072;85;10000962;-78
2022/02/03 11:33:49;;;;;;;27.58;5.95;;;;;;;4.25;89.13;100921.06;1677613;83;21032;-76
2022/02/03 11:43:05;;;;;;;16.27;4.87;;;;;;;4.46;89.04;100911.55;1672543;83;21080;-76
2022/02/03 11:55:12;;;;;;;9.10;4.53;;;;;;;4.72;89.03;100892.65;1650053;85;20972;-76
2022/02/03 12:19:03;;;;;;;23.07;6.75;;;;;;;4.89;88.93;100873.22;1653087;83;20965;-77
2022/02/03 12:21:50;;;;;;;16.77;4.95;;;;;;;4.89;88.94;100868.95;1647981;85;21123;-77
2022/02/03 12:24:46;;;;;;;15.03;5.78;;;;;;;4.89;88.84;100867.67;1646835;84;20941;-77
2022/02/03 12:27:33;;;;;;;22.35;6.47;;;;;;;4.89;88.84;100862.55;1639288;83;21403;-78
2022/02/03 12:30:25;;;;;;;16.12;5.78;;;;;;;4.91;88.90;100863.84;1638655;85;21393;-78
2022/02/03 12:36:59;;;;;;;20.72;6.50;;;;;;;4.93;88.85;100857.03;1638679;85;21924;-78
2022/02/03 12:42:04;;;;;;;22.67;5.97;;;;;;;5.01;88.81;100849.01;1633876;85;21397;-77
2022/02/03 12:44:50;;;;;;;22.65;6.20;;;;;;;5.03;88.75;100849.88;1640533;85;20968;-77
2022/02/03 12:47:39;;;;;;;16.07;5.87;;;;;;;5.04;88.76;100850.33;1647721;85;21529;-81
2022/02/03 12:50:31;;;;;;;13.00;4.85;;;;;;;5.07;88.79;100845.66;1635478;86;20949;-77
2022/02/03 12:53:16;;;;;;;24.43;5.97;;;;;;;5.09;88.81;100844.82;1641383;85;20960;-78
2022/02/03 12:56:03;;;;;;;20.75;6.35;;;;;;;5.13;88.80;100845.71;1631458;85;21007;-76
2022/02/03 12:58:50;;;;;;;23.20;7.30;;;;;;;5.17;88.82;100842.33;1638507;85;20975;-75
2022/02/03 13:01:35;;;;;;;25.65;7.08;;;;;;;5.22;88.83;100843.20;1636531;85;21515;-75
2022/02/03 13:04:21;;;;;;;26.80;5.75;;;;;;;5.29;88.85;100842.00;1641142;86;20964;-75
2022/02/03 13:07:09;;;;;;;27.27;6.10;;;;;;;5.42;88.92;100838.27;1640436;86;20933;-77
2022/02/03 13:10:03;;;;;;;16.67;5.45;;;;;;;5.49;88.86;100840.89;1659183;83;329477;-76
2022/02/03 13:12:58;;;;;;;20.35;6.40;;;;;;;5.56;88.76;100841.80;1682750;83;20978;-76
2022/02/03 13:15:42;;;;;;;14.15;4.50;;;;;;;5.59;88.72;100832.42;1681308;82;20945;-76
2022/02/03 13:18:33;;;;;;;22.60;6.78;;;;;;;5.68;88.77;100832.06;1674529;83;20968;-76
2022/02/03 13:27:22;;;;;;;12.20;4.40;;;;;;;5.84;88.67;100828.72;1680986;83;20980;-76
2022/02/03 13:30:16;;;;;;;22.82;5.60;;;;;;;5.89;88.65;100830.50;1684897;83;20914;-76
2022/02/03 13:32:59;;;;;;;19.23;4.90;;;;;;;5.92;88.62;100821.97;1684242;83;20929;-76
2022/02/03 13:35:48;;;;;;;14.00;5.28;;;;;;;5.98;88.65;100813.02;1694327;83;20977;-76
2022/02/03 13:38:39;;;;;;;;;;;;;;;6.03;88.64;100820.33;1689676;83;21445;-76
2022/02/03 13:41:24;;;;;;;11.48;4.20;;;;;;;6.05;88.41;100814.78;1673763;83;20172;-76
2022/02/03 13:44:09;;;;;;;13.10;4.53;;;;;;;6.06;88.41;100814.36;1682867;83;21074;-76
2022/02/03 13:46:54;;;;;;;25.60;5.03;;;;;;;6.07;88.43;100809.66;1687784;83;20940;-76
2022/02/03 13:49:42;;;;;;;14.28;4.15;;;;;;;6.09;88.44;100809.23;1690689;83;20933;-75
2022/02/03 13:52:39;;;;;;;16.73;4.67;;;;;;;6.09;88.41;100798.97;1695950;84;20930;-76
2022/02/03 14:17:29;;;;;;;12.82;4.72;;;;;;;5.95;88.16;100796.32;1697505;83;21471;-77
2022/02/03 14:20:38;;;;;;;12.60;3.55;;;;;;;5.91;88.09;100792.87;1688835;84;20929;-77
2022/02/03 14:22:41;;;;;;;23.30;5.08;;;;;;;5.89;88.10;100790.73;1681196;84;20972;-75
2022/02/03 14:28:14;;;;;;;11.12;4.60;;;;;;;5.82;88.07;100779.10;1655771;86;20933;-76
2022/02/03 14:31:03;;;;;;;17.85;4.80;;;;;;;5.79;88.06;100779.08;1649074;85;20998;-77
2022/02/03 14:33:46;;;;;;;15.05;5.17;;;;;;;5.76;88.05;100776.50;1623363;85;21589;-77
2022/02/03 14:36:33;;;;;;;17.70;6.15;;;;;;;5.72;88.06;100778.19;1674208;83;20933;-77
2022/02/03 14:39:23;;;;;;;22.10;6.90;;;;;;;5.69;88.07;100773.06;1686931;83;21398;-77
2022/02/03 14:42:05;;;;;;;;;;;;;;;5.65;88.06;100776.45;1691686;84;20915;-77
2022/02/03 14:44:51;;;;;;;19.23;5.67;;;;;;;5.62;87.93;100768.74;1690671;83;20133;-77
2022/02/03 14:47:35;;;;;;;22.95;5.78;;;;;;;5.59;88.05;100761.03;1679604;84;20961;-77
2022/02/03 14:50:21;;;;;;;18.57;5.75;;;;;;;5.56;88.05;100759.72;1683272;83;21038;-77
2022/02/03 14:53:15;;;;;;;17.23;5.15;;;;;;;5.50;88.06;100750.28;1692985;84;21396;-77
2022/02/03 14:58:58;;;;;;;12.78;5.60;;;;;;;5.46;88.06;100750.25;1671324;83;21425;-79
2022/02/03 15:01:42;;;;;;;12.00;4.42;;;;;;;5.41;88.05;100750.22;1683593;83;20959;-78
2022/02/03 15:04:29;;;;;;;20.05;5.30;;;;;;;5.39;88.05;100745.92;1677717;83;20961;-78
2022/02/03 15:07:14;;;;;;;12.58;4.97;;;;;;;5.35;88.05;100746.75;1689925;83;21610;-77
2022/02/03 15:10:16;;;;;;;17.13;5.97;;;;;;;5.31;88.06;100739.03;1676220;84;21072;-79
2022/02/03 15:13:01;;;;;;;21.35;7.15;;;;;;;5.29;88.04;100747.14;1687276;84;21039;-78
2022/02/03 15:15:42;;;;;;;25.45;7.95;;;;;;;5.27;88.05;100743.70;1642079;85;21143;-77
2022/02/03 15:18:29;;;;;;;22.30;7.58;;;;;;;5.24;88.03;100744.96;1671141;83;21094;-79
2022/02/03 15:21:14;;;;;;;30.50;10.08;;;;;;;5.21;87.98;100738.95;1681536;83;21099;-78
2022/02/03 15:23:59;;;;;;;35.43;10.95;;;;;;;5.17;88.02;100729.55;1669075;84;21100;-78
2022/02/03 15:26:43;;;;;;;33.48;9.95;;;;;;;5.14;88.02;100730.39;1645061;85;21070;-79
2022/02/03 15:29:29;;;;;;;30.88;10.55;;;;;;;5.13;88.04;100729.09;1667599;84;21857;-80
2022/02/03 15:32:15;;;;;;;33.53;10.72;;;;;;;5.10;88.05;100722.23;1685363;83;21051;-79
2022/02/03 15:34:59;;;;;;;37.20;11.35;;;;;;;5.09;88.04;100720.52;1673420;84;21593;-79
2022/02/03 15:37:46;;;;;;;30.00;11.57;;;;;;;5.07;88.03;100716.23;1691678;83;21060;-79
2022/02/03 15:40:32;;;;;;;;;;;;;;;5.06;88.04;100710.66;1688934;83;21144;-77
2022/02/03 15:43:26;;;;;;;33.92;9.65;;;;;;;5.05;87.98;100704.68;1678321;83;20559;-78
2022/02/03 15:46:12;;;;;;;27.35;8.45;;;;;;;5.04;88.01;100704.25;1688171;83;21449;-78
2022/02/03 15:49:14;;;;;;;32.95;9.93;;;;;;;5.03;88.01;100699.11;1680660;83;21539;-77
2022/02/03 16:18:01;;;;;;;35.15;9.13;;;;;;;4.92;87.99;100683.65;1694209;83;21098;-76
2022/02/03 16:20:56;;;;;;;27.65;9.88;;;;;;;4.91;87.98;100684.07;1692862;84;21068;-76
2022/02/03 16:24:03;;;;;;;;;;;;;;;4.89;87.98;100678.08;1678052;84;21388;-76
2022/02/03 16:26:55;;;;;;;35.68;10.48;;;;;;;4.87;87.97;100668.23;1690760;84;20672;-76
2022/02/03 16:53:20;;;;;;;30.82;10.43;;;;;;;4.82;88.05;100657.52;1690835;84;21070;-77
2022/02/03 16:56:08;;;;;;;24.70;10.80;;;;;;;4.82;88.04;100656.23;1643344;85;21090;-77
2022/02/03 16:58:51;;;;;;;;;;;;;;;4.82;88.06;100654.95;1696360;84;21070;-76
2022/02/03 17:01:36;;;;;;;28.27;10.35;;;;;;;4.81;88.05;100644.27;1688192;84;20158;-77
2022/02/03 17:04:20;;;;;;;31.62;10.88;;;;;;;4.82;88.02;100642.14;1656556;86;21579;-77
2022/02/03 17:07:04;;;;;;;28.12;10.60;;;;;;;4.79;88.03;100637.00;1694921;84;20966;-77
2022/02/03 17:09:49;;;;;;;31.57;11.48;;;;;;;4.80;88.04;100643.41;1672418;84;21467;-77
2022/02/03 17:12:34;;;;;;;29.90;11.78;;;;;;;4.78;88.02;100639.98;1704144;83;21015;-76
2022/02/03 17:15:20;;;;;;;31.37;11.45;;;;;;;4.79;88.00;100637.86;1696128;84;20984;-76
2022/02/03 17:18:04;;;;;;;;;;;;;;;4.78;88.01;100641.69;1690044;84;21016;-77
2022/02/03 17:20:49;;;;;;;32.73;10.18;;;;;;;4.76;88.06;100631.42;1691352;84;20203;-77
2022/02/03 17:23:34;;;;;;;34.03;10.53;;;;;;;4.77;88.03;100631.00;1673540;84;21110;-77
2022/02/03 17:29:23;;;;;;;28.27;11.08;;;;;;;4.74;88.05;100630.98;1668157;84;20974;-76
2022/02/03 17:32:16;;;;;;;30.37;11.03;;;;;;;4.73;88.04;100624.14;1691350;84;21106;-76
2022/02/03 18:31:59;;;;;;;61.18;29.37;;;;;;;4.64;88.16;100580.14;1563442;89;21700;-76
2022/02/03 18:37:34;;;;;;;65.42;36.13;;;;;;;4.61;88.20;100580.97;1594922;88;21077;-77
2022/02/03 18:57:34;;;;;;;89.28;46.30;;;;;;;4.61;88.17;100565.61;1650421;83;21556;-77
2022/02/03 19:15:16;;;;;;;111.97;58.65;;;;;;;4.62;88.27;100558.36;1689824;83;20964;-78
2022/02/03 19:24:26;;;;;;;146.15;74.55;;;;;;;4.61;88.26;100551.52;1679159;83;20950;-78
2022/02/03 19:26:38;;;;;;;138.80;68.57;;;;;;;4.62;88.28;100554.52;1670076;84;20979;-79
2022/02/03 20:05:28;;;;;;;34.95;20.62;;;;;;;4.71;88.41;100528.51;1681081;83;20969;-79
2022/02/03 20:08:14;;;;;;;30.65;17.85;;;;;;;4.72;88.40;100527.23;1675839;83;21351;-78
2022/02/03 20:10:52;;;;;;;37.20;18.48;;;;;;;4.73;88.42;100528.09;1677252;83;21429;-78
2022/02/03 20:13:36;;;;;;;36.85;18.77;;;;;;;4.74;88.45;100523.41;1685383;83;20964;-79
2022/02/03 20:16:22;;;;;;;27.25;15.85;;;;;;;4.75;88.43;100520.85;1687681;83;20941;-80
2022/02/03 20:19:07;;;;;;;23.77;16.45;;;;;;;4.75;88.42;100511.03;1681037;83;20933;-77
2022/02/03 20:21:51;;;;;;;26.85;15.58;;;;;;;4.76;88.45;100505.92;1683236;83;20923;-80
2022/02/03 20:24:36;;;;;;;27.62;15.28;;;;;;;4.78;88.42;100512.33;1689494;83;20983;-79
2022/02/03 20:27:20;;;;;;;23.10;14.45;;;;;;;4.79;88.44;100503.80;1685590;83;21020;-79
2022/02/03 20:30:08;;;;;;;25.00;15.25;;;;;;;4.80;88.47;100497.83;1688154;83;20908;-79
2022/02/03 20:32:52;;;;;;;24.52;14.45;;;;;;;4.79;88.46;100499.95;1686876;83;21404;-79
2022/02/03 20:35:37;;;;;;;23.07;14.53;;;;;;;4.79;88.48;100502.52;1687939;83;21028;-78
2022/02/03 20:38:21;;;;;;;21.65;14.33;;;;;;;4.81;88.56;100504.66;1677803;83;21339;-79
2022/02/03 20:41:06;;;;;;;23.80;14.05;;;;;;;4.83;88.50;100501.69;1676226;83;21036;-79
2022/02/03 20:43:51;;;;;;;24.47;13.88;;;;;;;4.83;88.52;100502.55;1684204;83;21127;-79
2022/02/03 20:46:36;;;;;;;21.00;14.40;;;;;;;4.83;88.51;100500.41;1690794;83;20953;-79
2022/02/03 20:49:21;;;;;;;26.20;18.87;;;;;;;4.86;88.56;100502.98;1687964;83;22171;-79
2022/02/03 20:52:07;;;;;;;31.68;22.27;;;;;;;4.86;88.55;100500.42;1690323;83;21532;-79
2022/02/03 20:54:51;;;;;;;34.55;25.37;;;;;;;4.87;88.55;100499.58;1690860;83;20964;-79
2022/02/03 20:57:36;;;;;;;24.67;17.92;;;;;;;4.87;88.52;100493.17;1684357;83;20937;-79
2022/02/03 21:00:25;;;;;;;25.75;14.95;;;;;;;4.87;88.55;100490.19;1680097;83;20933;-79
2022/02/03 21:03:16;;;;;;;;;;;;;;;4.89;88.62;100485.06;1684455;83;21020;-79
2022/02/03 21:05:55;;;;;;;24.40;15.15;;;;;;;4.89;88.61;100484.64;1684439;83;20242;-79
2022/02/03 21:08:44;;;;;;;21.45;15.28;;;;;;;4.90;88.64;100484.22;1682702;83;27438;-79
2022/02/03 21:11:27;;;;;;;22.30;15.35;;;;;;;4.90;88.62;100481.23;1679636;83;20989;-80
2022/02/03 21:14:12;;;;;;;22.55;14.73;;;;;;;4.91;88.62;100482.95;1676592;83;20988;-80
2022/02/03 21:16:57;;;;;;;18.90;13.78;;;;;;;4.92;88.62;100483.80;1676754;83;20961;-80
2022/02/03 21:19:41;;;;;;;19.57;13.83;;;;;;;4.92;88.61;100479.53;1685714;83;20913;-80
2022/02/03 21:22:26;;;;;;;21.37;14.68;;;;;;;4.92;88.62;100481.24;1691298;82;20956;-80
2022/02/03 21:25:35;;;;;;;24.35;14.85;;;;;;;4.93;88.65;100482.53;1684205;83;21094;-80
2022/02/03 21:28:23;;;;;;;19.98;14.45;;;;;;;4.94;88.66;100479.55;1695135;84;21064;-79
2022/02/03 21:31:06;;;;;;;19.52;14.45;;;;;;;4.97;88.67;100478.27;1696634;84;21430;-78
2022/02/03 21:33:55;;;;;;;18.77;13.88;;;;;;;4.96;88.67;100476.56;1697347;84;21048;-79
2022/02/03 21:36:39;;;;;;;;;;;;;;;4.98;88.73;100473.58;1699771;84;20933;-79
2022/02/03 21:39:23;;;;;;;23.02;15.15;;;;;;;5.00;88.79;100475.73;1698108;83;23587;-79
2022/02/03 21:42:08;;;;;;;17.45;14.28;;;;;;;5.01;88.74;100473.59;1684834;83;21091;-79
2022/02/03 21:44:52;;;;;;;19.73;14.50;;;;;;;5.02;88.75;100470.61;1693675;84;21135;-79
2022/02/03 21:47:37;;;;;;;24.77;15.18;;;;;;;5.04;88.72;100479.16;1702457;83;21092;-78
2022/02/03 21:50:22;;;;;;;21.80;14.07;;;;;;;5.03;88.73;100471.90;1687622;84;21068;-79
2022/02/03 21:53:18;;;;;;;23.70;16.20;;;;;;;5.04;88.69;100474.89;1695342;84;21067;-79
2022/02/03 21:56:03;;;;;;;26.33;16.43;;;;;;;5.04;88.74;100476.17;1695000;84;21154;-79
2022/02/03 21:58:48;;;;;;;28.52;17.50;;;;;;;5.02;88.68;100471.47;1697649;84;21595;-79
2022/02/03 22:01:39;;;;;;;23.10;15.68;;;;;;;5.05;88.76;100477.89;1697616;84;20932;-80
2022/02/03 22:04:22;;;;;;;22.93;16.57;;;;;;;5.08;88.78;100477.05;1697593;84;21405;-80
2022/02/03 22:07:06;;;;;;;22.30;15.53;;;;;;;5.07;88.76;100480.03;1697593;84;20896;-79
2022/02/03 22:09:50;;;;;;;24.45;16.67;;;;;;;5.08;88.78;100479.18;1696687;84;21075;-79
2022/02/03 22:12:35;;;;;;;22.98;15.83;;;;;;;5.08;88.79;100475.34;1667919;86;20993;-79
2022/02/03 22:15:20;;;;;;;20.77;15.70;;;;;;;5.09;88.82;100471.92;1692725;83;21546;-79
2022/02/03 22:18:10;;;;;;;24.98;16.02;;;;;;;5.10;88.81;100470.22;1690523;84;20987;-80
2022/02/03 22:21:01;;;;;;;21.20;15.93;;;;;;;5.11;88.84;100468.94;1693637;83;21099;-79
2022/02/03 22:38:31;;;;;;;23.83;16.80;;;;;;;5.14;88.84;100461.27;1695891;84;21075;-79
2022/02/03 22:44:41;;;;;;;26.37;17.77;;;;;;;5.18;88.92;100442.48;1681588;84;21095;-79
2022/02/03 22:50:00;;;;;;;27.02;17.07;;;;;;;5.19;88.92;100435.23;1695525;84;21104;-79
2022/02/03 22:52:45;;;;;;;28.52;18.27;;;;;;;5.20;88.96;100432.23;1696359;84;21058;-79
2022/02/03 22:55:30;;;;;;;26.47;17.83;;;;;;;5.21;88.97;100428.79;1697368;84;20980;-78
2022/02/03 23:01:08;;;;;;;28.75;19.45;;;;;;;5.22;88.98;100427.94;1694621;83;21064;-79
2022/02/03 23:03:53;;;;;;;29.75;19.15;;;;;;;5.23;88.98;100425.80;1694686;84;20976;-79
2022/02/03 23:06:38;;;;;;;31.07;20.15;;;;;;;5.24;88.99;100430.08;1695614;84;21081;-79
2022/02/03 23:18:27;;;;;;;33.58;20.95;;;;;;;5.24;89.00;100430.94;1694740;84;21682;-79
2022/02/03 23:22:04;;;;;;;31.57;19.70;;;;;;;5.26;89.04;100428.38;1692662;84;20937;-79
2022/02/03 23:23:51;;;;;;;;;;;;;;;5.26;89.02;100434.36;1686332;84;21656;-79
2022/02/03 23:26:37;;;;;;;31.87;19.90;;;;;;;5.26;89.09;100434.36;1695642;84;20313;-78
2022/02/03 23:29:22;;;;;;;34.27;19.77;;;;;;;5.26;89.06;100434.36;1695643;84;26788;-79
2022/02/03 23:32:10;;;;;;;35.40;21.00;;;;;;;5.26;89.05;100430.94;1694750;84;21410;-79
2022/02/03 23:35:08;;;;;;;37.60;21.12;;;;;;;5.27;89.09;100428.38;1696008;84;21028;-79